sensor_id;sensor_type;location;lat;lon;timestamp;temperature;humidity
44833;DHT22;30569;51.252;9.830;2022-07-29T00:01:50;20.90;62.00
44833;DHT22;30569;51.252;9.830;2022-07-29T00:09:10;20.00;62.20
44833;DHT22;30569;51.252;9.830;2022-07-29T00:11:35;19.90;63.00
44833;DHT22;30569;51.252;9.830;2022-07-29T00:14:01;20.20;62.30
44833;DHT22;30569;51.252;9.830;2022-07-29T00:16:26;19.90;63.70
44833;DHT22;30569;51.252;9.830;2022-07-29T00:18:52;19.90;63.00
44833;DHT22;30569;51.252;9.830;2022-07-29T00:21:17;20.00;62.80
44833;DHT22;30569;51.252;9.830;2022-07-29T00:23:43;20.10;63.00
44833;DHT22;30569;51.252;9.830;2022-07-29T00:28:34;20.20;61.80
44833;DHT22;30569;51.252;9.830;2022-07-29T00:31:00;21.60;64.50
44833;DHT22;30569;51.252;9.830;2022-07-29T00:33:25;20.60;64.90
44833;DHT22;30569;51.252;9.830;2022-07-29T00:35:51;20.00;64.30
44833;DHT22;30569;51.252;9.830;2022-07-29T00:38:18;19.90;63.20
44833;DHT22;30569;51.252;9.830;2022-07-29T00:40:44;20.40;64.20
44833;DHT22;30569;51.252;9.830;2022-07-29T00:43:10;20.00;65.10
44833;DHT22;30569;51.252;9.830;2022-07-29T00:45:36;19.90;63.20
44833;DHT22;30569;51.252;9.830;2022-07-29T00:48:02;20.00;62.80
44833;DHT22;30569;51.252;9.830;2022-07-29T00:50:30;20.10;63.30
44833;DHT22;30569;51.252;9.830;2022-07-29T00:52:56;20.00;63.70
44833;DHT22;30569;51.252;9.830;2022-07-29T00:55:22;20.10;62.80
44833;DHT22;30569;51.252;9.830;2022-07-29T00:57:47;20.10;62.50
44833;DHT22;30569;51.252;9.830;2022-07-29T01:00:20;22.00;64.40
44833;DHT22;30569;51.252;9.830;2022-07-29T01:02:47;20.20;62.80
44833;DHT22;30569;51.252;9.830;2022-07-29T01:05:15;20.20;63.00
44833;DHT22;30569;51.252;9.830;2022-07-29T01:07:41;20.00;62.80
44833;DHT22;30569;51.252;9.830;2022-07-29T01:10:09;21.20;64.80
44833;DHT22;30569;51.252;9.830;2022-07-29T01:12:37;20.00;64.00
44833;DHT22;30569;51.252;9.830;2022-07-29T01:15:05;21.10;63.60
44833;DHT22;30569;51.252;9.830;2022-07-29T01:23:08;19.90;63.50
44833;DHT22;30569;51.252;9.830;2022-07-29T01:25:44;19.70;64.30
44833;DHT22;30569;51.252;9.830;2022-07-29T01:31:07;19.80;64.50
44833;DHT22;30569;51.252;9.830;2022-07-29T01:33:38;19.70;64.10
44833;DHT22;30569;51.252;9.830;2022-07-29T01:36:31;20.10;63.40
44833;DHT22;30569;51.252;9.830;2022-07-29T01:39:26;19.70;63.70
44833;DHT22;30569;51.252;9.830;2022-07-29T01:44:35;19.90;63.90
44833;DHT22;30569;51.252;9.830;2022-07-29T01:47:10;19.70;64.30
44833;DHT22;30569;51.252;9.830;2022-07-29T01:49:41;19.70;64.70
44833;DHT22;30569;51.252;9.830;2022-07-29T01:52:13;19.80;65.00
44833;DHT22;30569;51.252;9.830;2022-07-29T01:54:52;19.50;66.20
44833;DHT22;30569;51.252;9.830;2022-07-29T01:57:21;19.50;65.80
44833;DHT22;30569;51.252;9.830;2022-07-29T01:59:51;20.00;65.50
44833;DHT22;30569;51.252;9.830;2022-07-29T02:02:18;19.70;65.00
44833;DHT22;30569;51.252;9.830;2022-07-29T02:04:46;19.90;64.10
44833;DHT22;30569;51.252;9.830;2022-07-29T02:07:16;19.40;65.70
44833;DHT22;30569;51.252;9.830;2022-07-29T02:09:43;19.40;66.40
44833;DHT22;30569;51.252;9.830;2022-07-29T02:12:11;19.50;65.70
44833;DHT22;30569;51.252;9.830;2022-07-29T02:14:40;19.20;66.60
44833;DHT22;30569;51.252;9.830;2022-07-29T02:17:08;19.20;66.60
44833;DHT22;30569;51.252;9.830;2022-07-29T02:19:37;19.30;66.80
44833;DHT22;30569;51.252;9.830;2022-07-29T02:22:04;19.10;67.40
44833;DHT22;30569;51.252;9.830;2022-07-29T02:26:58;18.90;67.50
44833;DHT22;30569;51.252;9.830;2022-07-29T02:29:26;19.00;68.10
44833;DHT22;30569;51.252;9.830;2022-07-29T02:31:52;19.00;67.50
44833;DHT22;30569;51.252;9.830;2022-07-29T02:34:20;20.10;69.00
44833;DHT22;30569;51.252;9.830;2022-07-29T02:36:46;19.80;67.10
44833;DHT22;30569;51.252;9.830;2022-07-29T02:39:14;19.10;66.10
44833;DHT22;30569;51.252;9.830;2022-07-29T02:41:48;19.20;67.30
44833;DHT22;30569;51.252;9.830;2022-07-29T02:44:17;18.80;68.00
44833;DHT22;30569;51.252;9.830;2022-07-29T02:46:49;18.60;69.70
44833;DHT22;30569;51.252;9.830;2022-07-29T02:49:41;18.50;69.70
44833;DHT22;30569;51.252;9.830;2022-07-29T02:52:06;18.40;69.90
44833;DHT22;30569;51.252;9.830;2022-07-29T02:57:46;18.30;70.80
44833;DHT22;30569;51.252;9.830;2022-07-29T03:00:14;18.40;70.50
44833;DHT22;30569;51.252;9.830;2022-07-29T03:02:44;18.20;71.30
44833;DHT22;30569;51.252;9.830;2022-07-29T03:05:18;18.00;72.60
44833;DHT22;30569;51.252;9.830;2022-07-29T03:07:52;17.80;72.30
44833;DHT22;30569;51.252;9.830;2022-07-29T03:10:20;17.80;73.00
44833;DHT22;30569;51.252;9.830;2022-07-29T03:12:47;17.70;73.10
44833;DHT22;30569;51.252;9.830;2022-07-29T03:15:13;17.70;73.70
44833;DHT22;30569;51.252;9.830;2022-07-29T03:17:39;17.60;73.10
44833;DHT22;30569;51.252;9.830;2022-07-29T03:20:07;17.60;73.70
44833;DHT22;30569;51.252;9.830;2022-07-29T03:22:37;17.50;74.30
44833;DHT22;30569;51.252;9.830;2022-07-29T03:25:11;19.90;75.30
44833;DHT22;30569;51.252;9.830;2022-07-29T03:27:36;17.30;74.60
44833;DHT22;30569;51.252;9.830;2022-07-29T03:30:03;17.30;75.50
44833;DHT22;30569;51.252;9.830;2022-07-29T03:32:29;17.30;75.60
44833;DHT22;30569;51.252;9.830;2022-07-29T03:34:54;17.20;76.30
44833;DHT22;30569;51.252;9.830;2022-07-29T03:37:20;17.10;76.30
44833;DHT22;30569;51.252;9.830;2022-07-29T03:39:46;17.10;76.80
44833;DHT22;30569;51.252;9.830;2022-07-29T03:42:14;17.00;77.30
44833;DHT22;30569;51.252;9.830;2022-07-29T03:44:43;16.90;77.40
44833;DHT22;30569;51.252;9.830;2022-07-29T03:47:11;16.80;76.80
44833;DHT22;30569;51.252;9.830;2022-07-29T03:49:40;16.80;77.40
44833;DHT22;30569;51.252;9.830;2022-07-29T03:52:06;16.80;77.20
44833;DHT22;30569;51.252;9.830;2022-07-29T03:54:31;16.70;77.40
44833;DHT22;30569;51.252;9.830;2022-07-29T03:56:59;16.60;77.80
44833;DHT22;30569;51.252;9.830;2022-07-29T03:59:27;16.60;78.30
44833;DHT22;30569;51.252;9.830;2022-07-29T04:01:53;16.70;78.20
44833;DHT22;30569;51.252;9.830;2022-07-29T04:04:21;16.60;78.30
44833;DHT22;30569;51.252;9.830;2022-07-29T04:09:13;16.60;77.80
44833;DHT22;30569;51.252;9.830;2022-07-29T04:11:40;16.60;78.40
44833;DHT22;30569;51.252;9.830;2022-07-29T04:14:06;16.60;78.00
44833;DHT22;30569;51.252;9.830;2022-07-29T04:16:32;16.60;78.70
44833;DHT22;30569;51.252;9.830;2022-07-29T04:23:50;16.50;79.80
44833;DHT22;30569;51.252;9.830;2022-07-29T04:26:20;16.60;80.50
44833;DHT22;30569;51.252;9.830;2022-07-29T04:31:12;17.00;76.90
44833;DHT22;30569;51.252;9.830;2022-07-29T04:33:39;17.30;76.90
44833;DHT22;30569;51.252;9.830;2022-07-29T04:36:04;17.50;75.60
44833;DHT22;30569;51.252;9.830;2022-07-29T04:38:30;17.30;76.80
44833;DHT22;30569;51.252;9.830;2022-07-29T04:40:56;17.40;75.40
44833;DHT22;30569;51.252;9.830;2022-07-29T04:43:21;17.60;76.10
44833;DHT22;30569;51.252;9.830;2022-07-29T04:45:47;17.30;76.70
44833;DHT22;30569;51.252;9.830;2022-07-29T04:48:13;17.50;74.70
44833;DHT22;30569;51.252;9.830;2022-07-29T04:50:39;17.70;74.40
44833;DHT22;30569;51.252;9.830;2022-07-29T04:53:05;17.60;76.30
44833;DHT22;30569;51.252;9.830;2022-07-29T04:55:30;17.60;75.60
44833;DHT22;30569;51.252;9.830;2022-07-29T05:00:22;17.60;75.20
44833;DHT22;30569;51.252;9.830;2022-07-29T05:02:49;17.30;77.60
44833;DHT22;30569;51.252;9.830;2022-07-29T05:07:41;17.10;76.60
44833;DHT22;30569;51.252;9.830;2022-07-29T05:10:07;17.00;77.80
44833;DHT22;30569;51.252;9.830;2022-07-29T05:12:32;16.90;78.30
44833;DHT22;30569;51.252;9.830;2022-07-29T05:14:58;16.90;80.00
44833;DHT22;30569;51.252;9.830;2022-07-29T05:17:23;16.90;80.70
44833;DHT22;30569;51.252;9.830;2022-07-29T05:19:49;17.90;82.30
44833;DHT22;30569;51.252;9.830;2022-07-29T05:22:17;17.70;80.00
44833;DHT22;30569;51.252;9.830;2022-07-29T05:24:43;17.40;76.90
44833;DHT22;30569;51.252;9.830;2022-07-29T05:27:08;17.70;78.30
44833;DHT22;30569;51.252;9.830;2022-07-29T05:29:35;17.60;78.90
44833;DHT22;30569;51.252;9.830;2022-07-29T05:32:00;17.70;80.00
44833;DHT22;30569;51.252;9.830;2022-07-29T05:34:26;18.10;77.20
44833;DHT22;30569;51.252;9.830;2022-07-29T05:36:52;18.20;76.00
44833;DHT22;30569;51.252;9.830;2022-07-29T05:39:17;18.30;77.00
44833;DHT22;30569;51.252;9.830;2022-07-29T05:41:43;18.70;74.20
44833;DHT22;30569;51.252;9.830;2022-07-29T05:44:08;19.30;72.80
44833;DHT22;30569;51.252;9.830;2022-07-29T05:46:34;19.40;72.00
44833;DHT22;30569;51.252;9.830;2022-07-29T05:49:00;19.30;74.10
44833;DHT22;30569;51.252;9.830;2022-07-29T05:51:25;19.10;76.40
44833;DHT22;30569;51.252;9.830;2022-07-29T05:53:51;19.20;73.70
44833;DHT22;30569;51.252;9.830;2022-07-29T05:56:17;19.40;72.50
44833;DHT22;30569;51.252;9.830;2022-07-29T05:58:42;19.70;70.80
44833;DHT22;30569;51.252;9.830;2022-07-29T06:01:08;19.70;70.90
44833;DHT22;30569;51.252;9.830;2022-07-29T06:03:34;19.50;73.80
44833;DHT22;30569;51.252;9.830;2022-07-29T06:08:26;19.60;70.20
44833;DHT22;30569;51.252;9.830;2022-07-29T06:10:52;19.40;71.40
44833;DHT22;30569;51.252;9.830;2022-07-29T06:13:17;21.70;73.40
44833;DHT22;30569;51.252;9.830;2022-07-29T06:15:43;19.20;73.70
44833;DHT22;30569;51.252;9.830;2022-07-29T06:18:08;19.00;75.10
44833;DHT22;30569;51.252;9.830;2022-07-29T06:20:35;19.00;75.10
44833;DHT22;30569;51.252;9.830;2022-07-29T06:23:02;19.10;72.80
44833;DHT22;30569;51.252;9.830;2022-07-29T06:25:30;19.40;70.90
44833;DHT22;30569;51.252;9.830;2022-07-29T06:27:57;19.30;73.00
44833;DHT22;30569;51.252;9.830;2022-07-29T06:30:23;19.20;73.20
44833;DHT22;30569;51.252;9.830;2022-07-29T06:32:49;19.20;72.20
44833;DHT22;30569;51.252;9.830;2022-07-29T06:35:14;19.30;71.90
44833;DHT22;30569;51.252;9.830;2022-07-29T06:37:40;19.30;71.00
44833;DHT22;30569;51.252;9.830;2022-07-29T06:40:06;19.30;71.50
44833;DHT22;30569;51.252;9.830;2022-07-29T06:42:52;19.20;72.40
44833;DHT22;30569;51.252;9.830;2022-07-29T06:45:18;19.10;72.80
44833;DHT22;30569;51.252;9.830;2022-07-29T06:47:43;19.10;71.90
44833;DHT22;30569;51.252;9.830;2022-07-29T06:50:09;19.00;73.50
44833;DHT22;30569;51.252;9.830;2022-07-29T06:52:40;19.10;72.80
44833;DHT22;30569;51.252;9.830;2022-07-29T06:55:07;19.50;71.10
44833;DHT22;30569;51.252;9.830;2022-07-29T06:57:33;19.10;74.00
44833;DHT22;30569;51.252;9.830;2022-07-29T06:59:59;19.00;75.10
44833;DHT22;30569;51.252;9.830;2022-07-29T07:02:24;19.10;72.00
44833;DHT22;30569;51.252;9.830;2022-07-29T07:04:50;19.00;74.80
44833;DHT22;30569;51.252;9.830;2022-07-29T07:07:16;19.30;72.20
44833;DHT22;30569;51.252;9.830;2022-07-29T07:09:41;19.30;72.80
44833;DHT22;30569;51.252;9.830;2022-07-29T07:12:07;19.20;72.70
44833;DHT22;30569;51.252;9.830;2022-07-29T07:14:33;19.20;72.00
44833;DHT22;30569;51.252;9.830;2022-07-29T07:16:58;19.20;72.60
44833;DHT22;30569;51.252;9.830;2022-07-29T07:19:26;20.10;73.80
44833;DHT22;30569;51.252;9.830;2022-07-29T07:21:52;19.60;75.00
44833;DHT22;30569;51.252;9.830;2022-07-29T07:24:18;18.90;74.00
44833;DHT22;30569;51.252;9.830;2022-07-29T07:26:44;18.90;74.10
44833;DHT22;30569;51.252;9.830;2022-07-29T07:29:10;19.00;74.80
44833;DHT22;30569;51.252;9.830;2022-07-29T07:31:36;19.10;74.00
44833;DHT22;30569;51.252;9.830;2022-07-29T07:34:02;19.20;73.20
44833;DHT22;30569;51.252;9.830;2022-07-29T07:36:27;19.30;72.10
44833;DHT22;30569;51.252;9.830;2022-07-29T07:38:53;19.30;72.50
44833;DHT22;30569;51.252;9.830;2022-07-29T07:41:19;19.20;75.40
44833;DHT22;30569;51.252;9.830;2022-07-29T07:43:44;19.20;76.70
44833;DHT22;30569;51.252;9.830;2022-07-29T07:46:10;19.10;74.80
44833;DHT22;30569;51.252;9.830;2022-07-29T07:48:35;19.20;73.10
44833;DHT22;30569;51.252;9.830;2022-07-29T07:51:01;21.20;75.90
44833;DHT22;30569;51.252;9.830;2022-07-29T07:53:27;19.20;75.90
44833;DHT22;30569;51.252;9.830;2022-07-29T07:58:20;19.20;77.40
44833;DHT22;30569;51.252;9.830;2022-07-29T08:00:46;19.20;78.90
44833;DHT22;30569;51.252;9.830;2022-07-29T08:03:12;19.20;79.60
44833;DHT22;30569;51.252;9.830;2022-07-29T08:05:39;19.20;81.20
44833;DHT22;30569;51.252;9.830;2022-07-29T08:08:05;19.10;81.10
44833;DHT22;30569;51.252;9.830;2022-07-29T08:10:31;19.10;83.70
44833;DHT22;30569;51.252;9.830;2022-07-29T08:13:16;19.00;84.50
44833;DHT22;30569;51.252;9.830;2022-07-29T08:15:42;18.90;88.20
44833;DHT22;30569;51.252;9.830;2022-07-29T08:18:09;18.90;89.30
44833;DHT22;30569;51.252;9.830;2022-07-29T08:20:36;18.80;90.40
44833;DHT22;30569;51.252;9.830;2022-07-29T08:23:04;18.90;90.50
44833;DHT22;30569;51.252;9.830;2022-07-29T08:25:31;18.80;91.40
44833;DHT22;30569;51.252;9.830;2022-07-29T08:27:57;18.60;92.40
44833;DHT22;30569;51.252;9.830;2022-07-29T08:30:22;18.60;92.50
44833;DHT22;30569;51.252;9.830;2022-07-29T08:32:48;18.60;92.40
44833;DHT22;30569;51.252;9.830;2022-07-29T08:35:16;19.00;92.60
44833;DHT22;30569;51.252;9.830;2022-07-29T08:37:41;18.50;92.80
44833;DHT22;30569;51.252;9.830;2022-07-29T08:40:07;18.50;93.30
44833;DHT22;30569;51.252;9.830;2022-07-29T08:42:33;18.60;92.10
44833;DHT22;30569;51.252;9.830;2022-07-29T08:44:58;18.70;92.70
44833;DHT22;30569;51.252;9.830;2022-07-29T08:47:25;19.00;90.50
44833;DHT22;30569;51.252;9.830;2022-07-29T08:49:51;19.40;91.40
44833;DHT22;30569;51.252;9.830;2022-07-29T08:52:18;18.90;93.30
44833;DHT22;30569;51.252;9.830;2022-07-29T08:54:45;19.10;90.50
44833;DHT22;30569;51.252;9.830;2022-07-29T08:57:14;19.70;90.00
44833;DHT22;30569;51.252;9.830;2022-07-29T08:59:42;20.10;89.40
44833;DHT22;30569;51.252;9.830;2022-07-29T09:02:18;20.50;91.10
44833;DHT22;30569;51.252;9.830;2022-07-29T09:04:45;20.30;87.30
44833;DHT22;30569;51.252;9.830;2022-07-29T09:07:18;21.00;78.90
44833;DHT22;30569;51.252;9.830;2022-07-29T09:09:44;21.10;79.30
44833;DHT22;30569;51.252;9.830;2022-07-29T09:12:10;21.00;83.90
44833;DHT22;30569;51.252;9.830;2022-07-29T09:14:39;21.30;80.30
44833;DHT22;30569;51.252;9.830;2022-07-29T09:17:06;22.50;71.40
44833;DHT22;30569;51.252;9.830;2022-07-29T09:19:36;22.50;71.30
44833;DHT22;30569;51.252;9.830;2022-07-29T09:22:04;23.00;72.70
44833;DHT22;30569;51.252;9.830;2022-07-29T09:27:27;24.00;68.90
44833;DHT22;30569;51.252;9.830;2022-07-29T09:29:58;24.20;69.60
44833;DHT22;30569;51.252;9.830;2022-07-29T09:32:24;24.20;69.70
44833;DHT22;30569;51.252;9.830;2022-07-29T09:34:49;24.50;70.50
44833;DHT22;30569;51.252;9.830;2022-07-29T09:37:28;24.30;67.00
44833;DHT22;30569;51.252;9.830;2022-07-29T09:39:54;24.20;69.60
44833;DHT22;30569;51.252;9.830;2022-07-29T09:42:29;24.00;68.20
44833;DHT22;30569;51.252;9.830;2022-07-29T09:44:55;23.50;71.30
44833;DHT22;30569;51.252;9.830;2022-07-29T09:47:21;23.60;68.90
44833;DHT22;30569;51.252;9.830;2022-07-29T09:52:16;23.40;72.00
44833;DHT22;30569;51.252;9.830;2022-07-29T09:54:42;23.50;73.50
44833;DHT22;30569;51.252;9.830;2022-07-29T09:57:09;23.70;71.70
44833;DHT22;30569;51.252;9.830;2022-07-29T09:59:56;24.00;71.90
44833;DHT22;30569;51.252;9.830;2022-07-29T10:02:22;24.10;70.10
44833;DHT22;30569;51.252;9.830;2022-07-29T10:04:52;24.70;66.70
44833;DHT22;30569;51.252;9.830;2022-07-29T10:07:18;25.10;66.60
44833;DHT22;30569;51.252;9.830;2022-07-29T10:09:56;25.20;69.30
44833;DHT22;30569;51.252;9.830;2022-07-29T10:12:23;25.70;69.20
44833;DHT22;30569;51.252;9.830;2022-07-29T10:14:49;25.90;67.40
44833;DHT22;30569;51.252;9.830;2022-07-29T10:17:15;25.80;68.20
44833;DHT22;30569;51.252;9.830;2022-07-29T10:19:41;25.80;67.90
44833;DHT22;30569;51.252;9.830;2022-07-29T10:22:09;25.60;68.30
44833;DHT22;30569;51.252;9.830;2022-07-29T10:24:36;25.80;67.20
44833;DHT22;30569;51.252;9.830;2022-07-29T10:27:07;26.00;62.00
44833;DHT22;30569;51.252;9.830;2022-07-29T10:29:33;26.00;62.10
44833;DHT22;30569;51.252;9.830;2022-07-29T10:32:21;25.80;63.30
44833;DHT22;30569;51.252;9.830;2022-07-29T10:37:52;26.60;63.50
44833;DHT22;30569;51.252;9.830;2022-07-29T10:40:28;26.60;63.70
44833;DHT22;30569;51.252;9.830;2022-07-29T10:43:19;27.00;58.90
44833;DHT22;30569;51.252;9.830;2022-07-29T10:45:48;26.60;62.80
44833;DHT22;30569;51.252;9.830;2022-07-29T10:48:14;26.40;61.50
44833;DHT22;30569;51.252;9.830;2022-07-29T10:51:00;26.30;59.90
44833;DHT22;30569;51.252;9.830;2022-07-29T10:53:50;26.30;63.30
44833;DHT22;30569;51.252;9.830;2022-07-29T10:56:32;26.30;58.80
44833;DHT22;30569;51.252;9.830;2022-07-29T11:01:55;26.20;64.10
44833;DHT22;30569;51.252;9.830;2022-07-29T11:07:11;26.40;59.30
44833;DHT22;30569;51.252;9.830;2022-07-29T11:09:38;26.40;59.70
44833;DHT22;30569;51.252;9.830;2022-07-29T11:13:05;26.40;59.00
44833;DHT22;30569;51.252;9.830;2022-07-29T11:14:59;26.40;63.60
44833;DHT22;30569;51.252;9.830;2022-07-29T11:17:27;26.80;61.60
44833;DHT22;30569;51.252;9.830;2022-07-29T11:22:56;27.10;58.40
44833;DHT22;30569;51.252;9.830;2022-07-29T11:25:21;27.30;58.40
44833;DHT22;30569;51.252;9.830;2022-07-29T11:27:47;27.20;54.80
44833;DHT22;30569;51.252;9.830;2022-07-29T11:30:13;27.40;56.10
44833;DHT22;30569;51.252;9.830;2022-07-29T11:32:43;27.50;53.90
44833;DHT22;30569;51.252;9.830;2022-07-29T11:35:18;27.70;55.10
44833;DHT22;30569;51.252;9.830;2022-07-29T11:43:47;26.80;58.00
44833;DHT22;30569;51.252;9.830;2022-07-29T11:46:13;26.70;58.70
44833;DHT22;30569;51.252;9.830;2022-07-29T11:48:43;27.20;55.60
44833;DHT22;30569;51.252;9.830;2022-07-29T11:51:11;27.00;55.90
44833;DHT22;30569;51.252;9.830;2022-07-29T11:53:39;26.80;59.10
44833;DHT22;30569;51.252;9.830;2022-07-29T11:56:08;27.10;55.20
44833;DHT22;30569;51.252;9.830;2022-07-29T11:58:33;27.20;56.90
44833;DHT22;30569;51.252;9.830;2022-07-29T12:01:00;27.10;55.10
44833;DHT22;30569;51.252;9.830;2022-07-29T12:03:27;27.10;56.50
44833;DHT22;30569;51.252;9.830;2022-07-29T12:05:53;27.10;58.30
44833;DHT22;30569;51.252;9.830;2022-07-29T12:08:21;27.10;54.10
44833;DHT22;30569;51.252;9.830;2022-07-29T12:10:49;27.20;54.90
44833;DHT22;30569;51.252;9.830;2022-07-29T12:13:17;27.50;56.80
44833;DHT22;30569;51.252;9.830;2022-07-29T12:15:52;27.90;54.50
44833;DHT22;30569;51.252;9.830;2022-07-29T12:18:19;27.70;55.40
44833;DHT22;30569;51.252;9.830;2022-07-29T12:20:46;27.80;56.80
44833;DHT22;30569;51.252;9.830;2022-07-29T12:23:13;27.70;57.60
44833;DHT22;30569;51.252;9.830;2022-07-29T12:25:40;27.60;61.20
44833;DHT22;30569;51.252;9.830;2022-07-29T12:28:09;27.80;58.00
44833;DHT22;30569;51.252;9.830;2022-07-29T12:30:39;28.10;53.40
44833;DHT22;30569;51.252;9.830;2022-07-29T12:33:15;28.30;54.30
44833;DHT22;30569;51.252;9.830;2022-07-29T12:35:44;28.30;53.60
44833;DHT22;30569;51.252;9.830;2022-07-29T12:38:11;28.40;56.00
44833;DHT22;30569;51.252;9.830;2022-07-29T12:40:38;28.50;56.00
44833;DHT22;30569;51.252;9.830;2022-07-29T12:43:11;28.70;52.80
44833;DHT22;30569;51.252;9.830;2022-07-29T12:45:39;28.60;55.60
44833;DHT22;30569;51.252;9.830;2022-07-29T12:48:06;28.20;56.10
44833;DHT22;30569;51.252;9.830;2022-07-29T12:50:34;28.30;56.70
44833;DHT22;30569;51.252;9.830;2022-07-29T12:53:13;28.50;55.30
44833;DHT22;30569;51.252;9.830;2022-07-29T12:55:47;28.60;52.20
44833;DHT22;30569;51.252;9.830;2022-07-29T12:58:36;28.50;52.60
44833;DHT22;30569;51.252;9.830;2022-07-29T13:01:08;28.40;53.20
44833;DHT22;30569;51.252;9.830;2022-07-29T13:03:55;28.50;53.80
44833;DHT22;30569;51.252;9.830;2022-07-29T13:06:42;28.50;52.70
44833;DHT22;30569;51.252;9.830;2022-07-29T13:09:12;28.60;54.00
44833;DHT22;30569;51.252;9.830;2022-07-29T13:11:47;28.60;53.20
44833;DHT22;30569;51.252;9.830;2022-07-29T13:14:33;28.70;54.20
44833;DHT22;30569;51.252;9.830;2022-07-29T13:17:10;28.50;56.20
44833;DHT22;30569;51.252;9.830;2022-07-29T13:22:02;28.70;53.90
44833;DHT22;30569;51.252;9.830;2022-07-29T13:24:28;29.00;52.00
44833;DHT22;30569;51.252;9.830;2022-07-29T13:26:53;28.50;53.50
44833;DHT22;30569;51.252;9.830;2022-07-29T13:29:19;28.40;51.30
44833;DHT22;30569;51.252;9.830;2022-07-29T13:31:44;28.60;53.60
44833;DHT22;30569;51.252;9.830;2022-07-29T13:34:10;28.40;55.50
44833;DHT22;30569;51.252;9.830;2022-07-29T13:36:36;28.00;55.70
44833;DHT22;30569;51.252;9.830;2022-07-29T13:39:02;28.00;54.70
44833;DHT22;30569;51.252;9.830;2022-07-29T13:41:28;28.10;55.70
44833;DHT22;30569;51.252;9.830;2022-07-29T13:43:54;28.00;56.20
44833;DHT22;30569;51.252;9.830;2022-07-29T13:46:19;28.20;55.50
44833;DHT22;30569;51.252;9.830;2022-07-29T13:48:45;28.10;56.00
44833;DHT22;30569;51.252;9.830;2022-07-29T13:51:10;28.10;59.40
44833;DHT22;30569;51.252;9.830;2022-07-29T13:53:36;28.30;52.90
44833;DHT22;30569;51.252;9.830;2022-07-29T13:56:02;28.30;54.00
44833;DHT22;30569;51.252;9.830;2022-07-29T13:58:27;28.10;54.10
44833;DHT22;30569;51.252;9.830;2022-07-29T14:00:53;28.30;54.30
44833;DHT22;30569;51.252;9.830;2022-07-29T14:03:18;28.30;58.40
44833;DHT22;30569;51.252;9.830;2022-07-29T14:05:44;28.30;57.90
44833;DHT22;30569;51.252;9.830;2022-07-29T14:08:09;28.30;56.70
44833;DHT22;30569;51.252;9.830;2022-07-29T14:10:35;28.30;56.90
44833;DHT22;30569;51.252;9.830;2022-07-29T14:13:01;28.50;59.50
44833;DHT22;30569;51.252;9.830;2022-07-29T14:15:26;28.50;53.70
44833;DHT22;30569;51.252;9.830;2022-07-29T14:17:52;28.50;53.90
44833;DHT22;30569;51.252;9.830;2022-07-29T14:20:17;28.50;55.70
44833;DHT22;30569;51.252;9.830;2022-07-29T14:22:43;28.20;57.10
44833;DHT22;30569;51.252;9.830;2022-07-29T14:25:08;27.90;55.50
44833;DHT22;30569;51.252;9.830;2022-07-29T14:27:34;27.80;58.30
44833;DHT22;30569;51.252;9.830;2022-07-29T14:30:00;27.80;59.50
44833;DHT22;30569;51.252;9.830;2022-07-29T14:32:25;27.60;59.80
44833;DHT22;30569;51.252;9.830;2022-07-29T14:34:51;29.40;57.00
44833;DHT22;30569;51.252;9.830;2022-07-29T14:37:16;27.70;62.80
44833;DHT22;30569;51.252;9.830;2022-07-29T14:39:42;27.70;63.50
44833;DHT22;30569;51.252;9.830;2022-07-29T14:42:07;27.70;63.80
44833;DHT22;30569;51.252;9.830;2022-07-29T14:44:33;27.60;64.30
44833;DHT22;30569;51.252;9.830;2022-07-29T14:46:59;27.70;61.80
44833;DHT22;30569;51.252;9.830;2022-07-29T14:49:26;27.60;62.00
44833;DHT22;30569;51.252;9.830;2022-07-29T14:51:52;27.50;58.00
44833;DHT22;30569;51.252;9.830;2022-07-29T14:54:17;27.80;55.70
44833;DHT22;30569;51.252;9.830;2022-07-29T14:56:43;27.60;56.70
44833;DHT22;30569;51.252;9.830;2022-07-29T14:59:08;27.40;58.30
44833;DHT22;30569;51.252;9.830;2022-07-29T15:01:34;27.40;59.40
44833;DHT22;30569;51.252;9.830;2022-07-29T15:04:00;27.40;57.50
44833;DHT22;30569;51.252;9.830;2022-07-29T15:06:26;27.30;58.20
44833;DHT22;30569;51.252;9.830;2022-07-29T15:08:52;27.40;59.60
44833;DHT22;30569;51.252;9.830;2022-07-29T15:11:17;27.40;62.10
44833;DHT22;30569;51.252;9.830;2022-07-29T15:13:43;27.50;60.40
44833;DHT22;30569;51.252;9.830;2022-07-29T15:16:08;27.50;58.40
44833;DHT22;30569;51.252;9.830;2022-07-29T15:18:34;27.60;57.40
44833;DHT22;30569;51.252;9.830;2022-07-29T15:21:00;27.50;61.80
44833;DHT22;30569;51.252;9.830;2022-07-29T15:25:53;28.00;58.60
44833;DHT22;30569;51.252;9.830;2022-07-29T15:28:18;28.10;54.90
44833;DHT22;30569;51.252;9.830;2022-07-29T15:30:44;28.10;59.30
44833;DHT22;30569;51.252;9.830;2022-07-29T15:33:10;28.30;56.80
44833;DHT22;30569;51.252;9.830;2022-07-29T15:35:36;28.00;60.30
44833;DHT22;30569;51.252;9.830;2022-07-29T15:38:02;27.80;62.00
44833;DHT22;30569;51.252;9.830;2022-07-29T15:40:28;27.70;60.90
44833;DHT22;30569;51.252;9.830;2022-07-29T15:42:53;27.60;62.10
44833;DHT22;30569;51.252;9.830;2022-07-29T15:45:19;27.70;60.10
44833;DHT22;30569;51.252;9.830;2022-07-29T15:47:44;27.40;61.30
44833;DHT22;30569;51.252;9.830;2022-07-29T15:50:10;27.40;62.20
44833;DHT22;30569;51.252;9.830;2022-07-29T15:52:40;27.30;62.20
44833;DHT22;30569;51.252;9.830;2022-07-29T15:55:06;27.20;60.50
44833;DHT22;30569;51.252;9.830;2022-07-29T15:57:32;27.10;62.40
44833;DHT22;30569;51.252;9.830;2022-07-29T15:59:58;27.20;59.30
44833;DHT22;30569;51.252;9.830;2022-07-29T16:02:26;27.40;60.40
44833;DHT22;30569;51.252;9.830;2022-07-29T16:04:52;27.10;60.40
44833;DHT22;30569;51.252;9.830;2022-07-29T16:07:18;27.00;59.80
44833;DHT22;30569;51.252;9.830;2022-07-29T16:09:44;27.00;60.70
44833;DHT22;30569;51.252;9.830;2022-07-29T16:12:09;29.90;62.60
44833;DHT22;30569;51.252;9.830;2022-07-29T16:14:35;27.20;60.20
44833;DHT22;30569;51.252;9.830;2022-07-29T16:17:00;27.60;59.40
44833;DHT22;30569;51.252;9.830;2022-07-29T16:19:28;27.60;60.00
44833;DHT22;30569;51.252;9.830;2022-07-29T16:21:54;27.80;56.90
44833;DHT22;30569;51.252;9.830;2022-07-29T16:24:19;27.90;57.00
44833;DHT22;30569;51.252;9.830;2022-07-29T16:26:45;28.40;58.10
44833;DHT22;30569;51.252;9.830;2022-07-29T16:29:10;28.10;56.50
44833;DHT22;30569;51.252;9.830;2022-07-29T16:31:36;28.00;56.80
44833;DHT22;30569;51.252;9.830;2022-07-29T16:34:02;28.40;58.50
44833;DHT22;30569;51.252;9.830;2022-07-29T16:36:27;28.10;58.00
44833;DHT22;30569;51.252;9.830;2022-07-29T16:38:53;27.80;58.00
44833;DHT22;30569;51.252;9.830;2022-07-29T16:41:18;27.70;58.90
44833;DHT22;30569;51.252;9.830;2022-07-29T16:43:44;27.70;55.60
44833;DHT22;30569;51.252;9.830;2022-07-29T16:46:10;27.60;56.00